KAUW/AUW METAR and TAF weather

Enter ICAO airport designator
Station Type Date Time Source
KAUW METAR 2021/04/13 23:31 UTC NOAA

KAUW 132331Z AUTO 22009KT 3SM -SN SCT019 BKN023 OVC032 02/M03 A3002 RMK AO2 P0000 T00171028


Station Type Date Time Source
KAUW Decoded METAR 2021/04/13 23:31 UTC NOAA

WAUSAU DOWNTOWN AIRPORT, WI, United States (KAUW) 44-56N 089-37W 362M
Apr 13, 2021 - 07:31 PM EDT / 2021.04.13 2331 UTC
Wind: from the SW (220 degrees) at 10 MPH (9 KT):0
Visibility: 3 mile(s):0
Sky conditions: overcast
Weather: light snow
Precipitation last hour: A trace
Temperature: 35.1 F (1.7 C)
Dew Point: 27.0 F (-2.8 C)
Relative Humidity: 71%
Pressure (altimeter): 30.02 in. Hg (1016 hPa)
ob: KAUW 132331Z AUTO 22009KT 3SM -SN SCT019 BKN023 OVC032 02/M03 A3002 RMK AO2 P0000 T00171028
cycle: 23

Station Type Date Time Source
KAUW TAF 2021/04/13 18:33 UTC NOAA

TAF KAUW 131730Z 1318/1418 25010G18KT P6SM OVC035
FM132100 25011G19KT P6SM -SHRA OVC030
FM140100 26009G16KT P6SM -SHRASN OVC030
FM140400 26006KT P6SM -SHSN OVC018
FM140700 28006KT P6SM -SHSN OVC009
FM141600 31008KT P6SM BKN018

Example: see airport list